createdAt,value
2018-08-12T00:00:27.742Z,1015.69
2018-08-12T00:01:27.764Z,1015.63
2018-08-12T00:02:27.790Z,1015.67
2018-08-12T00:03:27.811Z,1015.68
2018-08-12T00:04:27.834Z,1015.7
2018-08-12T00:05:27.857Z,1015.67
2018-08-12T00:06:27.881Z,1015.67
2018-08-12T00:07:27.901Z,1015.66
2018-08-12T00:08:27.925Z,1015.65
2018-08-12T00:09:27.950Z,1015.64
2018-08-12T00:10:27.973Z,1015.68
2018-08-12T00:11:27.997Z,1015.63
2018-08-12T00:12:28.019Z,1015.67
2018-08-12T00:14:28.064Z,1015.68
2018-08-12T00:15:28.085Z,1015.69
2018-08-12T00:16:28.110Z,1015.65
2018-08-12T00:17:28.134Z,1015.66
2018-08-12T00:18:28.155Z,1015.67
2018-08-12T00:19:28.179Z,1015.67
2018-08-12T00:20:28.204Z,1015.69
2018-08-12T00:21:28.226Z,1015.69
2018-08-12T00:22:28.247Z,1015.69
2018-08-12T00:23:28.273Z,1015.67
2018-08-12T00:24:28.294Z,1015.68
2018-08-12T00:25:28.318Z,1015.72
2018-08-12T00:26:28.339Z,1015.69
2018-08-12T00:27:28.363Z,1015.66
2018-08-12T00:28:28.386Z,1015.66
2018-08-12T00:30:28.431Z,1015.68
2018-08-12T00:31:28.458Z,1015.68
2018-08-12T00:32:28.478Z,1015.68
2018-08-12T00:33:28.499Z,1015.68
2018-08-12T00:34:28.523Z,1015.63
2018-08-12T00:35:28.548Z,1015.63
2018-08-12T00:36:28.569Z,1015.64
2018-08-12T00:37:28.593Z,1015.64
2018-08-12T00:38:28.616Z,1015.66
2018-08-12T00:39:28.637Z,1015.63
2018-08-12T00:40:28.660Z,1015.62
2018-08-12T00:41:28.686Z,1015.66
2018-08-12T00:42:28.708Z,1015.66
2018-08-12T00:43:28.729Z,1015.64
2018-08-12T00:44:28.753Z,1015.64
2018-08-12T00:46:28.797Z,1015.66
2018-08-12T00:47:28.820Z,1015.67
2018-08-12T00:48:28.843Z,1015.65
2018-08-12T00:49:28.867Z,1015.65
2018-08-12T00:50:28.889Z,1015.64
2018-08-12T00:51:28.910Z,1015.66
2018-08-12T00:52:28.936Z,1015.64
2018-08-12T00:53:28.958Z,1015.63
2018-08-12T00:54:28.980Z,1015.65
2018-08-12T00:55:29.007Z,1015.63
2018-08-12T00:56:29.026Z,1015.62
2018-08-12T00:57:29.052Z,1015.61
2018-08-12T00:58:29.072Z,1015.61
2018-08-12T00:59:29.095Z,1015.63
2018-08-12T01:01:29.142Z,1015.58
2018-08-12T01:02:29.164Z,1015.6
2018-08-12T01:03:29.189Z,1015.62
2018-08-12T01:04:29.209Z,1015.64
2018-08-12T01:05:29.233Z,1015.63
2018-08-12T01:06:29.255Z,1015.66
2018-08-12T01:07:29.278Z,1015.65
2018-08-12T01:08:29.302Z,1015.66
2018-08-12T01:09:29.323Z,1015.66
2018-08-12T01:10:29.346Z,1015.69
2018-08-12T01:11:29.372Z,1015.69
2018-08-12T01:12:29.392Z,1015.67
2018-08-12T01:13:29.413Z,1015.68
2018-08-12T01:14:29.438Z,1015.67
2018-08-12T01:15:29.461Z,1015.66
2018-08-12T01:16:29.484Z,1015.67
2018-08-12T01:17:29.506Z,1015.66
2018-08-12T01:18:29.529Z,1015.69
2018-08-12T01:19:29.550Z,1015.66
2018-08-12T01:20:29.574Z,1015.71
2018-08-12T01:21:29.596Z,1015.69
2018-08-12T01:22:29.620Z,1015.71
2018-08-12T01:23:29.644Z,1015.69
2018-08-12T01:24:29.667Z,1015.72
2018-08-12T01:25:29.687Z,1015.66
2018-08-12T01:26:29.710Z,1015.7
2018-08-12T01:27:29.733Z,1015.72
2018-08-12T01:28:29.755Z,1015.67
2018-08-12T01:29:29.779Z,1015.65
2018-08-12T01:30:29.801Z,1015.65
2018-08-12T01:31:29.822Z,1015.6
2018-08-12T01:33:29.869Z,1015.61
2018-08-12T01:34:29.893Z,1015.6
2018-08-12T01:35:29.915Z,1015.57
2018-08-12T01:36:29.936Z,1015.55
2018-08-12T01:37:29.960Z,1015.52
2018-08-12T01:38:29.985Z,1015.52
2018-08-12T01:39:30.005Z,1015.51
2018-08-12T01:40:30.028Z,1015.54
2018-08-12T01:41:30.054Z,1015.49
2018-08-12T01:42:30.073Z,1015.47
2018-08-12T01:43:30.095Z,1015.48
2018-08-12T01:44:30.120Z,1015.46
2018-08-12T01:45:30.141Z,1015.46
2018-08-12T01:46:30.163Z,1015.46
2018-08-12T01:47:30.188Z,1015.47
2018-08-12T01:49:30.231Z,1015.44
2018-08-12T01:50:30.257Z,1015.43
2018-08-12T01:51:30.276Z,1015.46
2018-08-12T01:52:30.299Z,1015.45
2018-08-12T01:53:30.320Z,1015.45
2018-08-12T01:54:30.342Z,1015.44
2018-08-12T01:55:30.367Z,1015.43
2018-08-12T01:56:30.391Z,1015.47
2018-08-12T01:57:30.412Z,1015.46
2018-08-12T01:58:30.436Z,1015.45
2018-08-12T01:59:30.455Z,1015.44
2018-08-12T02:00:30.480Z,1015.44
2018-08-12T02:01:30.502Z,1015.45
2018-08-12T02:02:30.523Z,1015.49
2018-08-12T02:03:30.547Z,1015.46
2018-08-12T02:05:30.590Z,1015.44
2018-08-12T02:06:30.613Z,1015.41
2018-08-12T02:07:30.637Z,1015.43
2018-08-12T02:08:30.658Z,1015.4
2018-08-12T02:09:30.681Z,1015.41
2018-08-12T02:10:30.704Z,1015.43
2018-08-12T02:11:30.729Z,1015.44
2018-08-12T02:12:30.747Z,1015.44
2018-08-12T02:13:30.772Z,1015.42
2018-08-12T02:14:30.794Z,1015.43
2018-08-12T02:15:30.816Z,1015.41
2018-08-12T02:16:30.841Z,1015.39
2018-08-12T02:17:30.861Z,1015.4
2018-08-12T02:18:30.883Z,1015.37
2018-08-12T02:19:30.906Z,1015.36
2018-08-12T02:21:30.952Z,1015.32
2018-08-12T02:22:30.972Z,1015.34
2018-08-12T02:23:30.995Z,1015.35
2018-08-12T02:24:31.017Z,1015.34
2018-08-12T02:25:31.040Z,1015.36
2018-08-12T02:26:31.062Z,1015.37
2018-08-12T02:27:31.084Z,1015.39
2018-08-12T02:28:31.108Z,1015.4
2018-08-12T02:29:31.130Z,1015.4
2018-08-12T02:30:31.150Z,1015.4
2018-08-12T02:31:31.174Z,1015.42
2018-08-12T02:32:31.202Z,1015.43
2018-08-12T02:33:31.224Z,1015.45
2018-08-12T02:34:31.241Z,1015.46
2018-08-12T02:36:31.286Z,1015.42
2018-08-12T02:37:31.307Z,1015.45
2018-08-12T02:38:31.330Z,1015.43
2018-08-12T02:39:31.353Z,1015.46
2018-08-12T02:40:31.382Z,1015.44
2018-08-12T02:41:31.397Z,1015.45
2018-08-12T02:42:31.419Z,1015.43
2018-08-12T02:43:31.441Z,1015.42
2018-08-12T02:44:31.462Z,1015.42
2018-08-12T02:45:31.486Z,1015.42
2018-08-12T02:46:31.508Z,1015.41
2018-08-12T02:47:31.531Z,1015.45
2018-08-12T02:48:31.559Z,1015.41
2018-08-12T02:49:31.574Z,1015.39
2018-08-12T02:50:31.599Z,1015.38
2018-08-12T02:51:31.620Z,1015.38
2018-08-12T02:52:31.641Z,1015.37
2018-08-12T02:53:31.663Z,1015.4
2018-08-12T02:54:31.686Z,1015.4
2018-08-12T02:55:31.716Z,1015.41
2018-08-12T02:56:31.735Z,1015.39
2018-08-12T02:57:31.752Z,1015.38
2018-08-12T02:58:31.774Z,1015.4
2018-08-12T02:59:31.796Z,1015.36
2018-08-12T03:00:31.818Z,1015.38
2018-08-12T03:01:31.839Z,1015.37
2018-08-12T03:02:31.874Z,1015.4
2018-08-12T03:03:31.885Z,1015.34
2018-08-12T03:04:31.906Z,1015.35
2018-08-12T03:05:31.927Z,1015.38
2018-08-12T03:06:31.949Z,1015.41
2018-08-12T03:08:31.994Z,1015.42
2018-08-12T03:09:32.016Z,1015.39
2018-08-12T03:10:32.038Z,1015.43
2018-08-12T03:11:32.061Z,1015.35
2018-08-12T03:12:32.090Z,1015.41
2018-08-12T03:13:32.105Z,1015.35
2018-08-12T03:14:32.126Z,1015.39
2018-08-12T03:15:32.148Z,1015.4
2018-08-12T03:16:32.170Z,1015.4
2018-08-12T03:17:32.192Z,1015.38
2018-08-12T03:18:32.216Z,1015.4
2018-08-12T03:19:32.236Z,1015.42
2018-08-12T03:20:32.261Z,1015.42
2018-08-12T03:21:32.280Z,1015.43
2018-08-12T03:22:32.408Z,1015.44
2018-08-12T03:24:32.346Z,1015.49
2018-08-12T03:25:32.369Z,1015.49
2018-08-12T03:26:32.394Z,1015.53
2018-08-12T03:27:32.411Z,1015.48
2018-08-12T03:28:32.434Z,1015.47
2018-08-12T03:29:32.455Z,1015.5
2018-08-12T03:30:32.479Z,1015.53
2018-08-12T03:31:32.501Z,1015.52
2018-08-12T03:32:32.521Z,1015.52
2018-08-12T03:33:32.543Z,1015.5
2018-08-12T03:34:32.564Z,1015.5
2018-08-12T03:35:32.588Z,1015.5
2018-08-12T03:36:32.615Z,1015.48
2018-08-12T03:37:32.631Z,1015.49
2018-08-12T03:38:32.652Z,1015.48
2018-08-12T03:40:32.697Z,1015.47
2018-08-12T03:41:32.719Z,1015.45
2018-08-12T03:42:32.741Z,1015.47
2018-08-12T03:43:32.762Z,1015.47
2018-08-12T03:44:32.785Z,1015.45
2018-08-12T03:45:32.807Z,1015.45
2018-08-12T03:46:32.828Z,1015.44
2018-08-12T03:47:32.850Z,1015.47
2018-08-12T03:48:32.871Z,1015.5
2018-08-12T03:49:32.894Z,1015.5
2018-08-12T03:50:32.918Z,1015.49
2018-08-12T03:51:32.940Z,1015.47
2018-08-12T03:52:32.963Z,1015.5
2018-08-12T03:53:32.983Z,1015.55
2018-08-12T03:54:33.005Z,1015.52
2018-08-12T03:56:33.047Z,1015.54
2018-08-12T03:57:33.070Z,1015.56
2018-08-12T03:58:33.091Z,1015.56
2018-08-12T03:59:33.115Z,1015.55
2018-08-12T04:00:33.135Z,1015.55
2018-08-12T04:01:33.156Z,1015.61
2018-08-12T04:02:33.189Z,1015.56
2018-08-12T04:03:33.202Z,1015.59
2018-08-12T04:04:33.223Z,1015.58
2018-08-12T04:05:33.245Z,1015.56
2018-08-12T04:06:33.268Z,1015.59
2018-08-12T04:07:33.290Z,1015.6
2018-08-12T04:08:33.311Z,1015.59
2018-08-12T04:09:33.341Z,1015.54
2018-08-12T04:11:33.379Z,1015.63
2018-08-12T04:12:33.401Z,1015.62
2018-08-12T04:13:33.423Z,1015.61
2018-08-12T04:14:33.444Z,1015.63
2018-08-12T04:15:33.467Z,1015.65
2018-08-12T04:16:33.489Z,1015.68
2018-08-12T04:17:33.509Z,1015.66
2018-08-12T04:18:33.533Z,1015.71
2018-08-12T04:19:33.555Z,1015.75
2018-08-12T04:20:33.593Z,1015.7
2018-08-12T04:21:33.602Z,1015.74
2018-08-12T04:22:33.621Z,1015.75
2018-08-12T04:23:33.644Z,1015.76
2018-08-12T04:24:33.664Z,1015.76
2018-08-12T04:25:33.687Z,1015.78
2018-08-12T04:26:33.709Z,1015.77
2018-08-12T04:27:33.730Z,1015.74
2018-08-12T04:28:33.753Z,1015.73
2018-08-12T04:29:33.776Z,1015.72
2018-08-12T04:30:33.798Z,1015.73
2018-08-12T04:31:33.821Z,1015.73
2018-08-12T04:32:33.842Z,1015.73
2018-08-12T04:33:33.863Z,1015.74
2018-08-12T04:34:33.884Z,1015.73
2018-08-12T04:35:33.908Z,1015.71
2018-08-12T04:36:33.929Z,1015.76
2018-08-12T04:37:33.957Z,1015.7
2018-08-12T04:38:33.974Z,1015.7
2018-08-12T04:39:33.997Z,1015.74
2018-08-12T04:40:34.020Z,1015.71
2018-08-12T04:41:34.041Z,1015.74
2018-08-12T04:43:34.086Z,1015.75
2018-08-12T04:44:34.108Z,1015.76
2018-08-12T04:45:34.128Z,1015.73
2018-08-12T04:46:34.151Z,1015.74
2018-08-12T04:47:34.174Z,1015.76
2018-08-12T04:48:34.197Z,1015.77
2018-08-12T04:49:34.217Z,1015.77
2018-08-12T04:50:34.242Z,1015.77
2018-08-12T04:51:34.264Z,1015.78
2018-08-12T04:52:34.285Z,1015.75
2018-08-12T04:53:34.308Z,1015.73
2018-08-12T04:54:34.331Z,1015.7
2018-08-12T04:55:34.352Z,1015.78
2018-08-12T04:56:34.375Z,1015.76
2018-08-12T04:57:34.397Z,1015.77
2018-08-12T04:59:34.444Z,1015.92
2018-08-12T05:00:34.466Z,1016.02
2018-08-12T05:01:34.490Z,1016.01
2018-08-12T05:02:34.516Z,1016.03
2018-08-12T05:03:34.537Z,1016.05
2018-08-12T05:04:34.561Z,1016.11
2018-08-12T05:05:34.585Z,1016.19
2018-08-12T05:06:34.611Z,1016.18
2018-08-12T05:07:34.685Z,1016.2
2018-08-12T05:08:34.662Z,1016.17
2018-08-12T05:09:34.686Z,1016.21
2018-08-12T05:10:34.711Z,1016.28
2018-08-12T05:11:34.736Z,1016.3
2018-08-12T05:12:34.763Z,1016.33
2018-08-12T05:13:34.789Z,1016.38
2018-08-12T05:15:34.843Z,1016.36
2018-08-12T05:16:34.870Z,1016.33
2018-08-12T05:17:34.897Z,1016.37
2018-08-12T05:18:34.922Z,1016.28
2018-08-12T05:19:34.950Z,1016.25
2018-08-12T05:20:34.980Z,1016.3
2018-08-12T05:21:35.008Z,1016.27
2018-08-12T05:22:35.036Z,1016.3
2018-08-12T05:23:35.065Z,1016.36
2018-08-12T05:24:35.093Z,1016.36
2018-08-12T05:25:35.122Z,1016.37
2018-08-12T05:26:35.152Z,1016.32
2018-08-12T05:27:35.182Z,1016.32
2018-08-12T05:28:35.213Z,1016.32
2018-08-12T05:29:35.240Z,1016.34
2018-08-12T05:31:35.300Z,1016.28
2018-08-12T05:32:35.330Z,1016.32
2018-08-12T05:33:35.361Z,1016.25
2018-08-12T05:34:35.391Z,1016.28
2018-08-12T05:35:35.426Z,1016.23
2018-08-12T05:36:35.454Z,1016.24
2018-08-12T05:37:35.486Z,1016.24
2018-08-12T05:38:35.518Z,1016.2
2018-08-12T05:39:35.548Z,1016.2
2018-08-12T05:40:35.579Z,1016.19
2018-08-12T05:41:35.612Z,1016.17
2018-08-12T05:42:35.644Z,1016.14
2018-08-12T05:43:35.677Z,1016.12
2018-08-12T05:44:35.709Z,1016.11
2018-08-12T05:46:35.775Z,1016
2018-08-12T05:47:35.805Z,1016
2018-08-12T05:48:35.838Z,1016.04
2018-08-12T05:49:35.873Z,1016.06
2018-08-12T05:50:35.910Z,1016.1
2018-08-12T05:51:35.963Z,1016.06
2018-08-12T05:52:35.969Z,1016.11
2018-08-12T05:53:36.003Z,1016.16
2018-08-12T05:54:36.035Z,1016.19
2018-08-12T05:55:36.074Z,1016.23
2018-08-12T05:56:36.104Z,1016.3
2018-08-12T05:57:36.138Z,1016.32
2018-08-12T05:58:36.170Z,1016.36
2018-08-12T05:59:36.204Z,1016.35
2018-08-12T06:00:36.237Z,1016.33
2018-08-12T06:01:36.272Z,1016.33
2018-08-12T06:02:36.332Z,1016.37
2018-08-12T06:03:36.339Z,1016.36
2018-08-12T06:04:36.373Z,1016.36
2018-08-12T06:05:36.408Z,1016.35
2018-08-12T06:06:36.441Z,1016.33
2018-08-12T06:07:36.475Z,1016.33
2018-08-12T06:08:36.516Z,1016.35
2018-08-12T06:09:36.544Z,1016.34
2018-08-12T06:10:36.577Z,1016.38
2018-08-12T06:11:36.613Z,1016.36
2018-08-12T06:12:36.648Z,1016.33
2018-08-12T06:13:36.681Z,1016.3
2018-08-12T06:14:36.716Z,1016.36
2018-08-12T06:15:36.806Z,1016.37
2018-08-12T06:16:36.786Z,1016.37
2018-08-12T06:18:36.856Z,1016.41
2018-08-12T06:19:36.891Z,1016.44
2018-08-12T06:20:36.925Z,1016.39
2018-08-12T06:21:36.960Z,1016.39
2018-08-12T06:22:36.997Z,1016.39
2018-08-12T06:23:37.032Z,1016.45
2018-08-12T06:24:37.067Z,1016.47
2018-08-12T06:25:37.168Z,1016.49
2018-08-12T06:26:37.136Z,1016.54
2018-08-12T06:27:37.172Z,1016.58
2018-08-12T06:28:37.208Z,1016.57
2018-08-12T06:29:37.242Z,1016.59
2018-08-12T06:30:37.280Z,1016.64
2018-08-12T06:31:37.370Z,1016.72
2018-08-12T06:32:37.361Z,1016.74
2018-08-12T06:34:37.427Z,1016.84
2018-08-12T06:35:37.458Z,1016.82
2018-08-12T06:36:37.499Z,1016.82
2018-08-12T06:37:37.529Z,1016.92
2018-08-12T06:38:37.567Z,1016.92
2018-08-12T06:39:37.601Z,1016.92
2018-08-12T06:40:37.639Z,1016.91
2018-08-12T06:41:37.675Z,1016.91
2018-08-12T06:42:37.710Z,1016.9
2018-08-12T06:43:37.747Z,1016.97
2018-08-12T06:44:37.783Z,1016.92
2018-08-12T06:45:37.846Z,1016.97
2018-08-12T06:46:37.854Z,1016.95
2018-08-12T06:47:37.892Z,1017.04
2018-08-12T06:48:37.929Z,1017.02
2018-08-12T06:50:38.002Z,1017.01
2018-08-12T06:51:38.047Z,1016.85
2018-08-12T06:52:38.077Z,1016.9
2018-08-12T06:53:38.112Z,1016.77
2018-08-12T06:54:38.149Z,1016.48
2018-08-12T06:55:38.186Z,1016.66
2018-08-12T06:56:38.223Z,1016.67
2018-08-12T06:57:38.260Z,1016.64
2018-08-12T06:58:38.301Z,1016.71
2018-08-12T06:59:38.333Z,1016.73
2018-08-12T07:00:38.372Z,1016.63
2018-08-12T07:01:38.406Z,1016.65
2018-08-12T07:02:38.442Z,1016.48
2018-08-12T07:03:38.480Z,1016.65
2018-08-12T07:04:38.514Z,1016.58
2018-08-12T07:06:38.589Z,1015.86
2018-08-12T07:07:38.626Z,1015.78
2018-08-12T07:08:38.662Z,1015.77
2018-08-12T07:09:38.698Z,1015.79
2018-08-12T07:10:38.736Z,1015.9
2018-08-12T07:11:38.771Z,1015.86
2018-08-12T07:12:38.808Z,1015.83
2018-08-12T07:13:38.845Z,1015.88
2018-08-12T07:14:38.882Z,1015.83
2018-08-12T07:15:38.918Z,1015.88
2018-08-12T07:16:38.955Z,1015.85
2018-08-12T07:17:38.990Z,1015.84
2018-08-12T07:18:39.030Z,1015.81
2018-08-12T07:19:39.064Z,1015.85
2018-08-12T07:21:39.137Z,1015.81
2018-08-12T07:22:39.174Z,1015.73
2018-08-12T07:23:39.211Z,1015.79
2018-08-12T07:24:39.257Z,1015.79
2018-08-12T07:25:39.285Z,1015.75
2018-08-12T07:26:39.325Z,1015.8
2018-08-12T07:27:39.394Z,1015.77
2018-08-12T07:28:39.395Z,1015.67
2018-08-12T07:29:39.431Z,1015.52
2018-08-12T07:30:39.470Z,1015.61
2018-08-12T07:31:39.504Z,1016.05
2018-08-12T07:32:39.543Z,1016.16
2018-08-12T07:33:39.579Z,1016.13
2018-08-12T07:34:39.616Z,1016.02
2018-08-12T07:35:39.653Z,1016.02
2018-08-12T07:36:39.689Z,1016.01
2018-08-12T07:37:39.724Z,1016.02
2018-08-12T07:38:39.769Z,1015.98
2018-08-12T07:39:39.798Z,1015.98
2018-08-12T07:40:39.836Z,1015.97
2018-08-12T07:41:39.872Z,1015.96
2018-08-12T07:42:39.910Z,1015.93
2018-08-12T07:43:39.950Z,1015.92
2018-08-12T07:44:40.084Z,1015.86
2018-08-12T07:45:40.021Z,1015.91
2018-08-12T07:46:40.057Z,1015.83
2018-08-12T07:47:40.095Z,1015.82
2018-08-12T07:48:40.186Z,1015.8
2018-08-12T07:49:40.168Z,1015.8
2018-08-12T07:50:40.205Z,1015.8
2018-08-12T07:51:40.241Z,1015.77
2018-08-12T07:53:40.314Z,1015.74
2018-08-12T07:54:40.352Z,1015.75
2018-08-12T07:55:40.536Z,1015.67
2018-08-12T07:56:40.427Z,1015.68
2018-08-12T07:57:40.462Z,1015.63
2018-08-12T07:58:40.500Z,1015.68
2018-08-12T07:59:40.535Z,1015.68
2018-08-12T08:00:40.572Z,1015.65
2018-08-12T08:01:40.610Z,1015.66
2018-08-12T08:02:40.647Z,1015.61
2018-08-12T08:03:40.688Z,1015.6
2018-08-12T08:04:40.721Z,1015.62
2018-08-12T08:05:40.758Z,1015.62
2018-08-12T08:06:40.794Z,1015.57
2018-08-12T08:07:40.831Z,1015.55
2018-08-12T08:09:40.906Z,1015.47
2018-08-12T08:10:40.939Z,1015.53
2018-08-12T08:11:40.978Z,1015.5
2018-08-12T08:12:41.014Z,1015.47
2018-08-12T08:13:41.049Z,1015.46
2018-08-12T08:14:41.087Z,1015.5
2018-08-12T08:15:41.123Z,1015.5
2018-08-12T08:16:41.161Z,1015.53
2018-08-12T08:17:41.196Z,1015.46
2018-08-12T08:18:41.237Z,1015.4
2018-08-12T08:19:41.338Z,1015.34
2018-08-12T08:20:41.307Z,1015.36
2018-08-12T08:21:41.443Z,1015.33
2018-08-12T08:22:41.380Z,1015.32
2018-08-12T08:23:41.417Z,1015.26
2018-08-12T08:25:41.620Z,1015.42
2018-08-12T08:26:41.527Z,1015.42
2018-08-12T08:27:41.562Z,1015.41
2018-08-12T08:28:41.600Z,1015.44
2018-08-12T08:29:41.635Z,1015.39
2018-08-12T08:30:41.672Z,1015.44
2018-08-12T08:31:41.893Z,1015.45
2018-08-12T08:32:41.743Z,1015.52
2018-08-12T08:33:41.780Z,1015.51
2018-08-12T08:34:41.816Z,1015.48
2018-08-12T08:35:41.853Z,1015.44
2018-08-12T08:36:41.895Z,1015.47
2018-08-12T08:37:41.929Z,1015.45
2018-08-12T08:38:41.963Z,1015.46
2018-08-12T08:39:41.995Z,1015.42
2018-08-12T08:41:42.067Z,1015.16
2018-08-12T08:42:42.105Z,1015.08
2018-08-12T08:43:42.140Z,1015.1
2018-08-12T08:44:42.176Z,1015.11
2018-08-12T08:45:42.211Z,1015.11
2018-08-12T08:46:42.246Z,1015.06
2018-08-12T08:47:42.283Z,1015.09
2018-08-12T08:48:42.321Z,1015.12
2018-08-12T08:49:42.356Z,1015.08
2018-08-12T08:50:42.434Z,1015.09
2018-08-12T08:51:42.444Z,1015.07
2018-08-12T08:52:42.460Z,1015.04
2018-08-12T08:53:42.497Z,1015.02
2018-08-12T08:54:42.534Z,1014.96
2018-08-12T08:56:42.605Z,1014.94
2018-08-12T08:57:42.638Z,1014.93
2018-08-12T08:58:42.676Z,1014.87
2018-08-12T08:59:42.714Z,1014.83
2018-08-12T09:00:42.747Z,1014.91
2018-08-12T09:01:42.782Z,1014.84
2018-08-12T09:02:42.819Z,1014.79
2018-08-12T09:03:42.854Z,1014.77
2018-08-12T09:04:42.888Z,1014.78
2018-08-12T09:05:42.923Z,1014.81
2018-08-12T09:06:42.960Z,1014.78
2018-08-12T09:07:42.997Z,1014.74
2018-08-12T09:08:43.310Z,1014.74
2018-08-12T09:09:43.069Z,1014.68
2018-08-12T09:10:43.104Z,1014.65
2018-08-12T09:11:43.136Z,1014.68
2018-08-12T09:12:43.173Z,1014.67
2018-08-12T09:13:43.207Z,1014.69
2018-08-12T09:14:43.245Z,1014.62
2018-08-12T09:15:43.276Z,1014.61
2018-08-12T09:16:43.311Z,1014.6
2018-08-12T09:17:43.346Z,1014.63
2018-08-12T09:18:43.383Z,1014.61
2018-08-12T09:19:43.417Z,1014.58
2018-08-12T09:20:43.453Z,1014.54
2018-08-12T09:21:43.487Z,1014.56
2018-08-12T09:22:43.523Z,1014.48
2018-08-12T09:23:43.568Z,1014.51
2018-08-12T09:24:43.593Z,1014.53
2018-08-12T09:25:43.628Z,1014.51
2018-08-12T09:26:43.661Z,1014.49
2018-08-12T09:28:43.730Z,1014.35
2018-08-12T09:29:43.766Z,1014.32
2018-08-12T09:30:43.801Z,1014.39
2018-08-12T09:31:43.836Z,1014.32
2018-08-12T09:32:43.870Z,1014.31
2018-08-12T09:33:43.906Z,1014.29
2018-08-12T09:34:43.940Z,1014.24
2018-08-12T09:35:43.975Z,1014.29
2018-08-12T09:36:44.014Z,1014.3
2018-08-12T09:37:44.049Z,1014.24
2018-08-12T09:38:44.077Z,1014.26
2018-08-12T09:39:44.112Z,1014.24
2018-08-12T09:40:44.146Z,1014.3
2018-08-12T09:41:44.183Z,1014.29
2018-08-12T09:42:44.215Z,1014.33
2018-08-12T09:44:44.285Z,1014.27
2018-08-12T09:45:44.317Z,1014.31
2018-08-12T09:46:44.353Z,1014.22
2018-08-12T09:47:44.386Z,1014.17
2018-08-12T09:48:44.421Z,1014.15
2018-08-12T09:49:44.455Z,1014.16
2018-08-12T09:50:44.489Z,1014.19
2018-08-12T09:51:44.688Z,1014.18
2018-08-12T09:52:44.557Z,1014.19
2018-08-12T09:53:44.592Z,1014.11
2018-08-12T09:54:44.626Z,1014.11
2018-08-12T09:55:44.659Z,1014.18
2018-08-12T09:56:44.692Z,1014.18
2018-08-12T09:57:44.724Z,1014.07
2018-08-12T09:58:44.759Z,1014.16
2018-08-12T10:00:44.824Z,1014.07
2018-08-12T10:01:44.859Z,1014.05
2018-08-12T10:02:44.893Z,1014.03
2018-08-12T10:03:44.930Z,1014.02
2018-08-12T10:04:44.963Z,1014
2018-08-12T10:05:44.993Z,1013.98
2018-08-12T10:06:45.027Z,1014.01
2018-08-12T10:07:45.061Z,1013.94
2018-08-12T10:08:45.092Z,1013.96
2018-08-12T10:09:45.126Z,1013.91
2018-08-12T10:10:45.161Z,1013.89
2018-08-12T10:11:45.191Z,1013.84
2018-08-12T10:12:45.224Z,1013.89
2018-08-12T10:13:45.259Z,1013.86
2018-08-12T10:14:45.291Z,1013.91
2018-08-12T10:16:45.358Z,1013.84
2018-08-12T10:17:45.403Z,1013.79
2018-08-12T10:18:45.422Z,1013.87
2018-08-12T10:19:45.459Z,1013.82
2018-08-12T10:20:45.490Z,1013.8
2018-08-12T10:21:45.523Z,1013.76
2018-08-12T10:22:45.556Z,1013.75
2018-08-12T10:23:45.589Z,1013.69
2018-08-12T10:24:45.621Z,1013.61
2018-08-12T10:25:45.653Z,1013.64
2018-08-12T10:26:45.686Z,1013.61
2018-08-12T10:27:45.720Z,1013.57
2018-08-12T10:28:45.753Z,1013.57
2018-08-12T10:29:45.786Z,1013.55
2018-08-12T10:31:45.852Z,1013.56
2018-08-12T10:32:45.885Z,1013.59
2018-08-12T10:33:45.917Z,1013.55
2018-08-12T10:34:45.949Z,1013.56
2018-08-12T10:35:45.988Z,1013.51
2018-08-12T10:36:46.015Z,1013.53
2018-08-12T10:37:46.047Z,1013.49
2018-08-12T10:38:46.079Z,1013.5
2018-08-12T10:39:46.118Z,1013.56
2018-08-12T10:40:46.147Z,1013.44
2018-08-12T10:41:46.176Z,1013.43
2018-08-12T10:42:46.210Z,1013.45
2018-08-12T10:43:46.241Z,1013.39
2018-08-12T10:44:46.273Z,1013.35
2018-08-12T10:45:46.306Z,1013.45
2018-08-12T10:46:46.338Z,1013.33
2018-08-12T10:47:46.370Z,1013.33
2018-08-12T10:48:46.401Z,1013.29
2018-08-12T10:49:46.433Z,1013.3
2018-08-12T10:50:46.489Z,1013.35
2018-08-12T10:51:46.497Z,1013.31
2018-08-12T10:52:46.528Z,1013.35
2018-08-12T10:53:46.560Z,1013.28
2018-08-12T10:54:46.592Z,1013.25
2018-08-12T10:55:46.624Z,1013.24
2018-08-12T10:56:46.655Z,1013.21
2018-08-12T10:57:46.687Z,1013.21
2018-08-12T10:58:46.717Z,1013.22
2018-08-12T10:59:46.750Z,1013.14
2018-08-12T11:00:46.781Z,1013.15
2018-08-12T11:01:46.812Z,1013.14
2018-08-12T11:03:46.875Z,1013.14
2018-08-12T11:04:46.906Z,1013.08
2018-08-12T11:05:46.937Z,1013.05
2018-08-12T11:06:46.968Z,1013.06
2018-08-12T11:07:46.997Z,1013.14
2018-08-12T11:08:47.030Z,1013.08
2018-08-12T11:09:47.060Z,1013.06
2018-08-12T11:10:47.095Z,1013.05
2018-08-12T11:11:47.121Z,1012.99
2018-08-12T11:12:47.267Z,1012.98
2018-08-12T11:13:47.184Z,1012.97
2018-08-12T11:14:47.216Z,1012.96
2018-08-12T11:15:47.246Z,1012.93
2018-08-12T11:16:47.276Z,1012.9
2018-08-12T11:17:47.305Z,1012.84
2018-08-12T11:19:47.369Z,1012.88
2018-08-12T11:20:47.397Z,1012.89
2018-08-12T11:21:47.428Z,1012.97
2018-08-12T11:22:47.460Z,1012.87
2018-08-12T11:23:47.488Z,1012.96
2018-08-12T11:24:47.528Z,1012.91
2018-08-12T11:25:47.552Z,1012.88
2018-08-12T11:26:47.582Z,1012.89
2018-08-12T11:27:47.610Z,1012.86
2018-08-12T11:28:47.642Z,1012.8
2018-08-12T11:29:47.674Z,1012.8
2018-08-12T11:30:47.704Z,1012.73
2018-08-12T11:31:47.735Z,1012.77
2018-08-12T11:32:47.763Z,1012.73
2018-08-12T11:33:47.798Z,1012.8
2018-08-12T11:35:47.854Z,1012.78
2018-08-12T11:36:47.885Z,1012.73
2018-08-12T11:37:47.914Z,1012.79
2018-08-12T11:38:47.946Z,1012.71
2018-08-12T11:39:47.973Z,1012.73
2018-08-12T11:40:48.005Z,1012.66
2018-08-12T11:41:48.037Z,1012.62
2018-08-12T11:42:48.068Z,1012.61
2018-08-12T11:43:48.095Z,1012.57
2018-08-12T11:44:48.123Z,1012.63
2018-08-12T11:45:48.154Z,1012.62
2018-08-12T11:46:48.185Z,1012.61
2018-08-12T11:47:48.215Z,1012.58
2018-08-12T11:48:48.246Z,1012.52
2018-08-12T11:49:48.276Z,1012.55
2018-08-12T11:51:48.336Z,1012.46
2018-08-12T11:52:48.367Z,1012.5
2018-08-12T11:53:48.396Z,1012.44
2018-08-12T11:54:48.428Z,1012.46
2018-08-12T11:55:48.456Z,1012.4
2018-08-12T11:56:48.487Z,1012.43
2018-08-12T11:57:48.514Z,1012.42
2018-08-12T11:58:48.546Z,1012.39
2018-08-12T11:59:48.575Z,1012.4
2018-08-12T12:00:48.604Z,1012.4
2018-08-12T12:01:48.635Z,1012.36
2018-08-12T12:02:48.665Z,1012.33
2018-08-12T12:03:48.695Z,1012.27
2018-08-12T12:04:48.725Z,1012.29
2018-08-12T12:06:48.786Z,1012.25
2018-08-12T12:07:48.815Z,1012.18
2018-08-12T12:08:48.846Z,1012.28
2018-08-12T12:09:48.878Z,1012.15
2018-08-12T12:10:48.904Z,1012.15
2018-08-12T12:11:48.934Z,1012.13
2018-08-12T12:12:48.963Z,1012.15
2018-08-12T12:13:48.994Z,1012.14
2018-08-12T12:14:49.022Z,1012.1
2018-08-12T12:15:49.053Z,1012.03
2018-08-12T12:16:49.082Z,1012.03
2018-08-12T12:17:49.112Z,1011.98
2018-08-12T12:18:49.140Z,1012.09
2018-08-12T12:19:49.171Z,1012.02
2018-08-12T12:20:49.202Z,1011.98
2018-08-12T12:21:49.231Z,1011.99
2018-08-12T12:22:49.280Z,1012.01
2018-08-12T12:23:49.288Z,1011.98
2018-08-12T12:24:49.319Z,1012
2018-08-12T12:25:49.349Z,1012.08
2018-08-12T12:26:49.376Z,1011.92
2018-08-12T12:27:49.406Z,1011.94
2018-08-12T12:28:49.435Z,1011.88
2018-08-12T12:29:49.465Z,1011.92
2018-08-12T12:30:49.495Z,1011.85
2018-08-12T12:31:49.625Z,1011.83
2018-08-12T12:32:49.553Z,1011.85
2018-08-12T12:33:49.583Z,1011.82
2018-08-12T12:34:49.611Z,1011.87
2018-08-12T12:35:49.640Z,1011.86
2018-08-12T12:36:49.670Z,1011.85
2018-08-12T12:38:49.732Z,1011.85
2018-08-12T12:39:49.758Z,1011.75
2018-08-12T12:40:49.786Z,1011.77
2018-08-12T12:41:49.816Z,1011.76
2018-08-12T12:42:49.908Z,1011.69
2018-08-12T12:43:49.881Z,1011.82
2018-08-12T12:44:49.904Z,1011.7
2018-08-12T12:45:49.932Z,1011.7
2018-08-12T12:46:50.017Z,1011.72
2018-08-12T12:47:49.991Z,1011.69
2018-08-12T12:48:50.022Z,1011.69